Time;durP1;ratioP1;P1;durP2;ratioP2;P2;SDS_P1;SDS_P2;PMS_P1;PMS_P2;Temp;Humidity;BMP_temperature;BMP_pressure;BME280_temperature;BME280_humidity;BME280_pressure;Samples;Min_cycle;Max_cycle;Signal;HPM_P1;HPM_P2
2022/08/21 00:02:21;;;;;;;;;;;;;;;21.03;74.85;98988.56;4385322;32;35138;-81
2022/08/21 00:04:51;;;;;;;;;;;;;;;21.31;73.74;98984.03;4386107;32;34485;-80
2022/08/21 00:07:24;;;;;;;;;;;;;;;21.35;72.83;98993.44;4390650;32;34503;-80
2022/08/21 00:09:53;;;;;;;;;;;;;;;21.06;74.04;98975.19;4385962;32;33279;-82
2022/08/21 00:12:28;;;;;;;;;;;;;;;21.14;73.96;98985.19;4388368;32;33936;-80
2022/08/21 00:15:01;;;;;;;;;;;;;;;21.20;73.91;98976.03;4388438;32;35273;-82
2022/08/21 00:17:29;;;;;;;;;;;;;;;21.12;73.32;98979.22;4386933;32;33467;-81
2022/08/21 00:19:59;;;;;;;;;;;;;;;21.14;73.74;98966.75;4377006;32;32625;-81
2022/08/21 00:22:27;;;;;;;;;;;;;;;20.86;75.05;98976.53;4381966;32;34274;-81
2022/08/21 00:24:56;;;;;;;;;;;;;;;20.94;74.72;98967.25;4399356;32;33643;-83
2022/08/21 00:27:31;;;;;;;;;;;;;;;21.12;73.94;98966.03;4385658;32;33850;-81
2022/08/21 00:30:06;;;;;;;;;;;;;;;21.00;74.12;98961.59;4391008;32;35058;-80
2022/08/21 00:32:35;;;;;;;;;;;;;;;20.99;74.52;98962.50;4383326;32;35334;-81
2022/08/21 00:35:11;;;;;;;;;;;;;;;21.12;73.89;98971.31;4387953;32;33807;-80
2022/08/21 00:37:42;;;;;;;;;;;;;;;21.02;74.09;98964.94;4386246;32;34146;-82
2022/08/21 00:40:16;;;;;;;;;;;;;;;21.05;73.98;98967.38;4383980;32;32582;-80
2022/08/21 00:42:49;;;;;;;;;;;;;;;21.02;74.07;98970.22;4389874;32;34676;-81
2022/08/21 00:45:21;;;;;;;;;;;;;;;20.80;75.13;98968.19;4386304;32;34251;-81
2022/08/21 00:47:50;;;;;;;;;;;;;;;20.68;75.44;98964.56;4386802;32;34080;-80
2022/08/21 00:50:20;;;;;;;;;;;;;;;20.82;74.99;98972.41;4385691;32;33135;-81
2022/08/21 00:52:52;;;;;;;;;;;;;;;20.66;75.34;98961.22;4386228;32;34014;-80
2022/08/21 00:55:20;;;;;;;;;;;;;;;20.59;75.90;98965.19;4391222;32;34875;-82
2022/08/21 00:57:55;;;;;;;;;;;;;;;20.64;75.42;98953.41;4385647;32;34211;-80
2022/08/21 01:00:27;;;;;;;;;;;;;;;20.44;76.58;98957.31;4385527;32;33238;-82
2022/08/21 01:03:06;;;;;;;;;;;;;;;20.55;76.21;98958.41;4390818;32;34270;-82
2022/08/21 01:05:37;;;;;;;;;;;;;;;20.34;77.38;98958.84;4390513;32;34355;-82
2022/08/21 01:08:08;;;;;;;;;;;;;;;20.72;75.86;98959.94;4389638;32;34014;-82
2022/08/21 01:10:37;;;;;;;;;;;;;;;20.60;76.04;98966.88;4386131;32;33572;-80
2022/08/21 01:13:09;;;;;;;;;;;;;;;20.55;76.18;98943.47;4387658;32;34021;-82
2022/08/21 01:15:40;;;;;;;;;;;;;;;20.32;77.88;98957.25;4384426;32;34931;-82
2022/08/21 01:18:10;;;;;;;;;;;;;;;20.55;76.11;98958.41;4390696;32;34520;-82
2022/08/21 01:20:41;;;;;;;;;;;;;;;20.49;76.81;98962.28;4385789;32;33653;-82
2022/08/21 01:23:11;;;;;;;;;;;;;;;20.41;77.46;98959.28;4381969;32;33809;-81
2022/08/21 01:25:40;;;;;;;;;;;;;;;20.64;76.23;98957.84;4385800;32;33699;-80
2022/08/21 01:28:12;;;;;;;;;;;;;;;20.39;77.61;98956.78;4386120;32;34285;-80
2022/08/21 01:30:49;;;;;;;;;;;;;;;20.59;76.32;98957.28;4390935;32;32986;-80
2022/08/21 01:33:18;;;;;;;;;;;;;;;20.44;76.96;98961.72;4387472;32;33811;-81
2022/08/21 01:35:54;;;;;;;;;;;;;;;20.43;77.07;98947.72;4385412;32;34279;-81
2022/08/21 01:38:31;;;;;;;;;;;;;;;20.28;78.03;98947.88;4383701;32;34526;-81
2022/08/21 01:41:00;;;;;;;;;;;;;;;20.44;77.33;98941.50;4386713;32;33727;-81
2022/08/21 01:43:37;;;;;;;;;;;;;;;20.44;77.25;98952.06;4388331;32;33826;-81
2022/08/21 01:46:13;;;;;;;;;;;;;;;20.27;77.93;98936.47;4385954;32;33872;-80
2022/08/21 01:48:42;;;;;;;;;;;;;;;20.36;77.79;98946.41;4382849;32;33535;-82
2022/08/21 01:51:12;;;;;;;;;;;;;;;20.48;76.79;98938.66;4395818;32;33211;-81
2022/08/21 01:53:42;;;;;;;;;;;;;;;20.70;75.91;98938.12;4405662;32;34824;-80
2022/08/21 01:56:15;;;;;;;;;;;;;;;20.61;75.95;98944.84;4404648;32;33410;-82
2022/08/21 01:58:45;;;;;;;;;;;;;;;20.79;75.57;98943.63;4384504;32;33699;-80
2022/08/21 02:01:14;;;;;;;;;;;;;;;20.42;76.73;98947.84;4398868;32;33046;-80
2022/08/21 02:03:43;;;;;;;;;;;;;;;20.47;76.61;98935.19;4393542;32;34039;-80
2022/08/21 02:06:17;;;;;;;;;;;;;;;20.31;77.38;98939.78;4387964;32;34226;-80
2022/08/21 02:08:48;;;;;;;;;;;;;;;20.32;77.41;98939.69;4379447;32;33921;-80
2022/08/21 02:11:16;;;;;;;;;;;;;;;20.38;77.07;98939.28;4382064;32;32967;-81
2022/08/21 02:13:45;;;;;;;;;;;;;;;20.36;77.69;98943.78;4386100;32;34771;-79
2022/08/21 02:16:18;;;;;;;;;;;;;;;20.28;77.79;98934.72;4388342;32;33368;-82
2022/08/21 02:18:48;;;;;;;;;;;;;;;20.41;77.17;98936.41;4383426;32;34761;-81
2022/08/21 02:21:21;;;;;;;;;;;;;;;20.60;76.20;98935.25;4383336;32;31903;-81
2022/08/21 02:23:51;;;;;;;;;;;;;;;20.79;74.93;98930.44;4383485;32;35411;-81
2022/08/21 02:26:23;;;;;;;;;;;;;;;20.33;77.27;98940.53;4389522;32;35372;-80
2022/08/21 02:28:51;;;;;;;;;;;;;;;20.51;76.49;98941.09;4385499;32;34215;-80
2022/08/21 02:31:24;;;;;;;;;;;;;;;20.48;76.59;98943.94;4382749;32;33241;-81
2022/08/21 02:33:52;;;;;;;;;;;;;;;20.55;76.04;98948.72;4385760;32;34511;-79
2022/08/21 02:36:21;;;;;;;;;;;;;;;20.54;76.01;98948.78;4381055;32;33471;-81
2022/08/21 02:38:54;;;;;;;;;;;;;;;20.29;77.67;98950.41;4385415;32;33842;-81
2022/08/21 02:41:25;;;;;;;;;;;;;;;20.64;75.72;98937.59;4388581;32;33974;-80
2022/08/21 02:43:54;;;;;;;;;;;;;;;20.79;75.07;98943.63;4385965;32;34138;-81
2022/08/21 02:46:23;;;;;;;;;;;;;;;20.95;74.64;98935.53;4384999;32;34134;-79
2022/08/21 02:48:57;;;;;;;;;;;;;;;21.07;73.66;98932.06;4385084;32;34848;-80
2022/08/21 02:51:28;;;;;;;;;;;;;;;20.98;74.30;98935.31;4390411;32;32964;-80
2022/08/21 02:53:58;;;;;;;;;;;;;;;21.11;73.65;98935.31;4384626;32;35323;-81
2022/08/21 02:56:27;;;;;;;;;;;;;;;20.87;74.88;98935.19;4385095;32;35062;-81
2022/08/21 02:58:59;;;;;;;;;;;;;;;20.84;74.42;98943.31;4386279;32;34392;-79
2022/08/21 03:01:29;;;;;;;;;;;;;;;20.81;74.68;98935.63;4383632;32;34188;-79
2022/08/21 03:03:58;;;;;;;;;;;;;;;20.34;76.84;98926.41;4389298;32;34193;-81
2022/08/21 03:06:28;;;;;;;;;;;;;;;20.35;77.11;98926.31;4388181;32;33949;-80
2022/08/21 03:08:59;;;;;;;;;;;;;;;20.48;76.49;98926.34;4384681;32;34087;-82
2022/08/21 03:11:35;;;;;;;;;;;;;;;20.25;77.54;98933.97;4389916;32;33011;-81
2022/08/21 03:14:05;;;;;;;;;;;;;;;20.07;78.38;98929.88;4390869;32;33806;-81
2022/08/21 03:16:40;;;;;;;;;;;;;;;20.02;78.90;98927.53;4394096;32;33866;-81
2022/08/21 03:19:08;;;;;;;;;;;;;;;20.12;78.81;98930.44;4395517;32;34167;-81
2022/08/21 03:21:38;;;;;;;;;;;;;;;20.42;77.08;98927.59;4384128;32;33196;-80
2022/08/21 03:24:08;;;;;;;;;;;;;;;20.54;76.29;98935.63;4382868;32;34658;-81
2022/08/21 03:26:37;;;;;;;;;;;;;;;20.45;76.79;98926.53;4390760;32;34902;-80
2022/08/21 03:29:08;;;;;;;;;;;;;;;20.34;77.35;98940.41;4383975;32;33808;-80
2022/08/21 03:31:38;;;;;;;;;;;;;;;20.46;76.75;98944.91;4386780;32;32918;-82
2022/08/21 03:34:10;;;;;;;;;;;;;;;20.40;77.27;98931.28;4384205;32;33643;-80
2022/08/21 03:36:41;;;;;;;;;;;;;;;20.48;76.79;98943.94;4388255;32;33043;-81
2022/08/21 03:39:11;;;;;;;;;;;;;;;20.19;78.00;98941.41;4385042;32;33763;-82
2022/08/21 03:41:47;;;;;;;;;;;;;;;20.34;77.25;98943.03;4385600;32;33423;-81
2022/08/21 03:44:15;;;;;;;;;;;;;;;20.41;76.98;98949.59;4384118;32;34586;-81
2022/08/21 03:46:45;;;;;;;;;;;;;;;20.03;78.81;98942.41;4383077;32;33673;-81
2022/08/21 03:49:14;;;;;;;;;;;;;;;20.12;78.75;98943.59;4388416;32;34859;-82
2022/08/21 03:51:51;;;;;;;;;;;;;;;20.15;78.57;98945.19;4385546;32;33634;-81
2022/08/21 03:54:28;;;;;;;;;;;;;;;20.14;78.36;98949.59;4384151;32;34855;-81
2022/08/21 03:56:57;;;;;;;;;;;;;;;20.33;78.05;98948.44;4383539;32;34840;-80
2022/08/21 03:59:31;;;;;;;;;;;;;;;20.16;78.08;98946.88;4384911;32;33675;-81
2022/08/21 04:02:00;;;;;;;;;;;;;;;20.21;78.66;98947.44;4386363;32;33292;-81
2022/08/21 04:04:32;;;;;;;;;;;;;;;20.54;76.81;98960.19;4388074;32;34256;-81
2022/08/21 04:07:00;;;;;;;;;;;;;;;20.38;77.36;98949.81;4383633;32;33329;-80
2022/08/21 04:09:35;;;;;;;;;;;;;;;20.31;77.65;98951.16;4355644;32;865679;-79
2022/08/21 04:12:05;;;;;;;;;;;;;;;20.29;77.90;98957.47;4389485;32;34120;-81
2022/08/21 04:14:35;;;;;;;;;;;;;;;20.17;78.69;98957.31;4389335;32;33873;-80
2022/08/21 04:17:04;;;;;;;;;;;;;;;20.21;77.98;98961.44;4372328;32;33066;-82
2022/08/21 04:19:36;;;;;;;;;;;;;;;20.25;77.98;98962.94;4398698;32;34153;-80
2022/08/21 04:22:04;;;;;;;;;;;;;;;20.28;78.18;98961.91;4377119;32;34072;-80
2022/08/21 04:24:37;;;;;;;;;;;;;;;20.17;78.53;98959.94;4389842;32;33816;-80
2022/08/21 04:27:05;;;;;;;;;;;;;;;20.29;77.45;98963.56;4385335;32;33665;-80
2022/08/21 04:29:43;;;;;;;;;;;;;;;20.32;77.78;98963.41;4384785;32;34484;-80
2022/08/21 04:32:12;;;;;;;;;;;;;;;20.33;77.58;98965.06;4383868;32;32643;-80
2022/08/21 04:34:41;;;;;;;;;;;;;;;20.49;76.66;98971.97;4386626;32;34412;-80
2022/08/21 04:37:15;;;;;;;;;;;;;;;19.79;80.07;98970.28;4389357;32;33504;-81
2022/08/21 04:39:45;;;;;;;;;;;;;;;20.07;78.92;98979.91;4386245;32;33780;-79
2022/08/21 04:42:25;;;;;;;;;;;;;;;20.36;77.30;98971.94;4385559;32;33239;-81
2022/08/21 04:44:56;;;;;;;;;;;;;;;20.22;77.81;98978.06;4385030;32;34136;-79
2022/08/21 04:47:25;;;;;;;;;;;;;;;20.62;75.73;98976.38;4391240;32;33242;-80
2022/08/21 04:50:14;;;;;;;;;;;;;;;20.32;76.62;98983.59;4391429;32;33834;-80
2022/08/21 04:52:53;;;;;;;;;;;;;;;20.26;77.62;98979.59;4392095;32;32991;-81
2022/08/21 04:55:23;;;;;;;;;;;;;;;20.57;75.32;98980.25;4389070;32;34313;-80
2022/08/21 04:57:58;;;;;;;;;;;;;;;20.36;76.65;98982.47;4386117;32;34820;-80
2022/08/21 05:00:27;;;;;;;;;;;;;;;20.72;75.08;98975.75;4386448;32;34016;-81
2022/08/21 05:02:59;;;;;;;;;;;;;;;20.50;75.70;98984.22;4391368;32;32774;-81
2022/08/21 05:05:30;;;;;;;;;;;;;;;20.46;75.75;98986.19;4403720;32;34665;-80
2022/08/21 05:08:03;;;;;;;;;;;;;;;20.51;76.15;98983.25;4386801;32;35055;-79
2022/08/21 05:10:42;;;;;;;;;;;;;;;20.53;75.47;98984.84;4384144;32;33794;-79
2022/08/21 05:13:12;;;;;;;;;;;;;;;20.72;74.47;98983.66;4395614;32;32601;-80
2022/08/21 05:15:45;;;;;;;;;;;;;;;20.69;74.41;98984.72;4387795;32;34659;-82
2022/08/21 05:18:14;;;;;;;;;;;;;;;20.51;74.82;98992.00;4393651;32;34205;-79
2022/08/21 05:20:47;;;;;;;;;;;;;;;20.50;75.07;98994.75;4397375;32;34900;-80
2022/08/21 05:23:18;;;;;;;;;;;;;;;20.63;74.41;98987.75;4385626;32;32922;-79
2022/08/21 05:25:52;;;;;;;;;;;;;;;20.38;75.47;98989.31;4389014;32;33675;-82
2022/08/21 05:28:25;;;;;;;;;;;;;;;20.40;75.60;98992.72;4383972;32;34274;-80
2022/08/21 05:30:54;;;;;;;;;;;;;;;20.41;75.17;98993.53;4383653;32;33873;-80
2022/08/21 05:33:23;;;;;;;;;;;;;;;20.64;73.95;99000.84;4385457;32;33465;-80
2022/08/21 05:35:52;;;;;;;;;;;;;;;20.69;74.17;99000.53;4383075;32;33955;-81
2022/08/21 05:38:21;;;;;;;;;;;;;;;20.72;73.74;98999.47;4388074;32;34573;-80
2022/08/21 05:40:54;;;;;;;;;;;;;;;20.46;74.54;99008.13;4382188;32;33014;-80
2022/08/21 05:43:23;;;;;;;;;;;;;;;20.75;73.43;98997.47;4386795;32;33340;-80
2022/08/21 05:45:55;;;;;;;;;;;;;;;20.75;72.98;98994.84;4386898;32;34961;-80
2022/08/21 05:48:24;;;;;;;;;;;;;;;20.71;73.42;98996.00;4387160;32;33713;-81
2022/08/21 05:50:54;;;;;;;;;;;;;;;20.60;73.46;98994.06;4384732;32;34087;-80
2022/08/21 05:55:58;;;;;;;;;;;;;;;20.73;73.18;98990.62;4377551;32;34531;-81
2022/08/21 05:58:29;;;;;;;;;;;;;;;20.92;72.63;98990.25;4383375;32;33336;-79
2022/08/21 06:00:59;;;;;;;;;;;;;;;21.25;71.10;98985.31;4382230;32;34067;-80
2022/08/21 06:03:30;;;;;;;;;;;;;;;21.00;71.56;98985.31;4381867;32;33917;-81
2022/08/21 06:05:58;;;;;;;;;;;;;;;20.99;71.60;98984.44;4384636;32;34178;-82
2022/08/21 06:08:35;;;;;;;;;;;;;;;20.58;73.97;98990.69;4383381;32;34642;-81
2022/08/21 06:11:05;;;;;;;;;;;;;;;20.82;73.14;98985.59;4388008;32;34135;-80
2022/08/21 06:13:35;;;;;;;;;;;;;;;20.81;72.49;98994.44;4389688;32;33924;-79
2022/08/21 06:16:04;;;;;;;;;;;;;;;20.75;72.56;98992.19;4382535;32;34494;-80
2022/08/21 06:18:39;;;;;;;;;;;;;;;20.87;71.95;98993.19;4383153;32;34106;-80
2022/08/21 06:21:08;;;;;;;;;;;;;;;20.66;72.69;98992.84;4376289;32;34691;-79
2022/08/21 06:23:36;;;;;;;;;;;;;;;20.72;72.90;98992.41;4390891;32;33011;-79
2022/08/21 06:26:07;;;;;;;;;;;;;;;20.87;72.37;98995.81;4384991;32;33756;-80
2022/08/21 06:28:36;;;;;;;;;;;;;;;20.74;72.67;98995.81;4379304;32;33188;-81
2022/08/21 06:31:10;;;;;;;;;;;;;;;20.94;71.60;98994.47;4379501;32;34350;-79
2022/08/21 06:33:39;;;;;;;;;;;;;;;20.79;71.90;98992.88;4390511;32;33476;-80
2022/08/21 06:36:09;;;;;;;;;;;;;;;20.67;72.78;98995.34;4390458;32;33903;-80
2022/08/21 06:38:43;;;;;;;;;;;;;;;20.88;72.01;98995.72;4385143;32;35093;-81
2022/08/21 06:41:24;;;;;;;;;;;;;;;21.06;71.20;98990.16;4382259;32;33960;-81
2022/08/21 06:43:54;;;;;;;;;;;;;;;21.07;71.40;98997.16;4386585;32;33263;-81
2022/08/21 06:46:24;;;;;;;;;;;;;;;20.93;71.39;98999.88;4388691;32;33692;-79
2022/08/21 06:48:52;;;;;;;;;;;;;;;20.79;72.24;99004.25;4385167;32;33909;-80
2022/08/21 06:51:25;;;;;;;;;;;;;;;21.02;71.42;99004.50;4384124;32;34606;-79
2022/08/21 06:53:53;;;;;;;;;;;;;;;20.98;71.83;99008.31;4386424;32;33371;-79
2022/08/21 06:56:24;;;;;;;;;;;;;;;20.97;71.50;99004.84;4382152;32;33403;-81
2022/08/21 06:58:55;;;;;;;;;;;;;;;21.05;71.43;99006.94;4388242;32;32873;-81
2022/08/21 07:01:25;;;;;;;;;;;;;;;20.81;72.00;99009.44;4382036;32;33687;-81
2022/08/21 07:03:58;;;;;;;;;;;;;;;20.63;73.29;99003.56;4384259;32;34081;-80
2022/08/21 07:06:27;;;;;;;;;;;;;;;20.95;72.00;98997.94;4382688;32;33735;-79
2022/08/21 07:09:02;;;;;;;;;;;;;;;21.01;71.87;99005.47;4383705;32;33967;-82
2022/08/21 07:11:34;;;;;;;;;;;;;;;21.23;70.90;99005.69;4390855;32;33494;-81
2022/08/21 07:14:17;;;;;;;;;;;;;;;21.32;70.57;99009.50;4386375;32;34225;-80
2022/08/21 07:16:47;;;;;;;;;;;;;;;21.46;69.63;99016.50;4380107;32;33865;-80
2022/08/21 07:19:16;;;;;;;;;;;;;;;21.38;70.03;99013.50;4366276;32;33661;-80
2022/08/21 07:21:45;;;;;;;;;;;;;;;21.24;70.41;99007.38;4387628;32;33796;-80
2022/08/21 07:24:19;;;;;;;;;;;;;;;21.45;70.21;99014.81;4368412;32;33229;-79
2022/08/21 07:26:49;;;;;;;;;;;;;;;21.47;69.79;99016.38;4393083;32;33859;-80
2022/08/21 07:29:18;;;;;;;;;;;;;;;21.48;70.01;99014.59;4384350;32;34003;-80
2022/08/21 07:31:46;;;;;;;;;;;;;;;21.44;70.40;99010.50;4385410;32;33817;-79
2022/08/21 07:34:15;;;;;;;;;;;;;;;21.80;69.04;99012.38;4386887;32;32891;-80
2022/08/21 07:36:46;;;;;;;;;;;;;;;22.02;68.99;99006.41;4385964;32;33760;-79
2022/08/21 07:39:23;;;;;;;;;;;;;;;22.34;67.45;99014.66;4384046;32;34013;-80
2022/08/21 07:41:53;;;;;;;;;;;;;;;22.25;67.64;99006.56;4386425;32;33787;-80
2022/08/21 07:44:24;;;;;;;;;;;;;;;22.22;67.10;99005.00;4387053;32;35097;-80
2022/08/21 07:46:52;;;;;;;;;;;;;;;22.30;66.69;98999.16;4388107;32;33302;-81
2022/08/21 07:49:21;;;;;;;;;;;;;;;22.12;67.42;99007.41;4380172;32;35296;-80
2022/08/21 07:51:51;;;;;;;;;;;;;;;21.90;68.34;99007.28;4382616;32;33921;-81
2022/08/21 07:54:20;;;;;;;;;;;;;;;21.88;69.01;99001.25;4383533;32;33219;-81
2022/08/21 07:57:05;;;;;;;;;;;;;;;22.44;67.03;99000.78;4381570;32;33703;-81
2022/08/21 07:59:37;;;;;;;;;;;;;;;22.62;66.08;98993.31;4385372;32;34720;-79
2022/08/21 08:02:06;;;;;;;;;;;;;;;22.48;66.16;98992.53;4387833;32;34292;-79
2022/08/21 08:04:38;;;;;;;;;;;;;;;22.44;66.65;98998.97;4390036;32;34593;-80
2022/08/21 08:07:18;;;;;;;;;;;;;;;22.53;66.72;98995.66;4382336;32;34568;-81
2022/08/21 08:09:47;;;;;;;;;;;;;;;22.82;65.32;98999.75;4388491;32;34820;-79
2022/08/21 08:12:28;;;;;;;;;;;;;;;22.77;65.29;98997.47;4382976;32;34489;-79
2022/08/21 08:15:04;;;;;;;;;;;;;;;22.87;65.58;98987.87;4385626;32;34302;-81
2022/08/21 08:17:34;;;;;;;;;;;;;;;23.17;64.39;98990.03;4385506;32;34603;-79
2022/08/21 08:20:04;;;;;;;;;;;;;;;23.08;64.29;98985.44;4382319;32;34283;-80
2022/08/21 08:22:33;;;;;;;;;;;;;;;23.11;64.24;98985.22;4387878;32;34837;-79
2022/08/21 08:25:04;;;;;;;;;;;;;;;22.82;65.15;98984.72;4385558;32;33290;-79
2022/08/21 08:27:41;;;;;;;;;;;;;;;22.93;65.80;98978.63;4381780;32;34420;-81
2022/08/21 08:30:10;;;;;;;;;;;;;;;23.21;64.14;98974.75;4381471;32;34264;-79
2022/08/21 08:32:41;;;;;;;;;;;;;;;23.08;64.35;98979.31;4386465;32;33520;-79
2022/08/21 08:35:10;;;;;;;;;;;;;;;22.94;65.75;98972.41;4388063;32;32168;-80
2022/08/21 08:37:45;;;;;;;;;;;;;;;23.43;63.93;98980.06;4382185;32;34014;-79
2022/08/21 08:40:21;;;;;;;;;;;;;;;23.12;64.17;98971.03;4382911;32;34178;-80
2022/08/21 08:42:54;;;;;;;;;;;;;;;22.94;65.52;98975.88;4383914;32;34016;-80
2022/08/21 08:45:26;;;;;;;;;;;;;;;23.39;65.06;98972.50;4389561;32;33526;-80
2022/08/21 08:47:57;;;;;;;;;;;;;;;23.50;63.52;98975.16;4386492;32;35498;-80
2022/08/21 08:50:27;;;;;;;;;;;;;;;23.38;63.85;98973.47;4382517;32;33965;-80
2022/08/21 08:52:58;;;;;;;;;;;;;;;23.48;63.79;98979.72;4383109;32;36423;-79
2022/08/21 08:55:35;;;;;;;;;;;;;;;23.46;63.69;98978.97;4388052;32;33681;-79
2022/08/21 08:58:05;;;;;;;;;;;;;;;23.20;63.93;98981.88;4389043;32;34688;-78
2022/08/21 09:00:35;;;;;;;;;;;;;;;23.72;62.77;98976.94;4380994;32;34667;-79
2022/08/21 09:03:04;;;;;;;;;;;;;;;23.51;63.11;98976.84;4380118;32;33411;-80
2022/08/21 09:05:37;;;;;;;;;;;;;;;23.72;63.08;98984.88;4388414;32;33412;-80
2022/08/21 09:08:16;;;;;;;;;;;;;;;23.68;63.08;98985.25;4383077;32;34599;-80
2022/08/21 09:10:48;;;;;;;;;;;;;;;23.81;61.46;98988.66;4393458;32;34636;-81
2022/08/21 09:13:25;;;;;;;;;;;;;;;23.70;62.94;98986.81;4385647;32;35035;-80
2022/08/21 09:15:55;;;;;;;;;;;;;;;23.84;62.66;98981.31;4392969;32;32788;-81
2022/08/21 09:18:30;;;;;;;;;;;;;;;23.83;62.50;98987.56;4385444;32;33951;-80
2022/08/21 09:21:04;;;;;;;;;;;;;;;24.11;62.28;98984.53;4384907;32;34197;-80
2022/08/21 09:23:34;;;;;;;;;;;;;;;24.12;61.62;98980.94;4389335;32;34207;-81
2022/08/21 09:26:12;;;;;;;;;;;;;;;24.19;61.03;98984.75;4379643;32;32897;-82
2022/08/21 09:28:46;;;;;;;;;;;;;;;24.05;62.47;98975.28;4384842;32;33880;-80
2022/08/21 09:31:17;;;;;;;;;;;;;;;24.47;60.49;98978.06;4379446;32;33879;-80
2022/08/21 09:33:49;;;;;;;;;;;;;;;24.18;61.29;98980.41;4383380;32;35204;-79
2022/08/21 09:36:24;;;;;;;;;;;;;;;24.15;61.18;98978.84;4392490;32;33593;-81
2022/08/21 09:38:56;;;;;;;;;;;;;;;23.80;62.09;98977.22;4396779;32;34104;-81
2022/08/21 09:41:27;;;;;;;;;;;;;;;24.04;62.09;98971.78;4387413;32;32998;-80
2022/08/21 09:43:58;;;;;;;;;;;;;;;24.22;61.46;98973.91;4389976;32;34092;-81
2022/08/21 09:46:28;;;;;;;;;;;;;;;24.46;60.58;98971.09;4388906;32;33094;-79
2022/08/21 09:48:58;;;;;;;;;;;;;;;24.41;60.60;98970.59;4380462;32;32969;-80
2022/08/21 09:51:29;;;;;;;;;;;;;;;24.27;60.88;98969.91;4382556;32;33713;-80
2022/08/21 09:54:11;;;;;;;;;;;;;;;24.06;61.62;98972.47;4385005;32;34030;-80
2022/08/21 09:59:43;;;;;;;;;;;;;;;24.08;62.17;98971.53;4381820;32;34372;-79
2022/08/21 10:02:24;;;;;;;;;;;;;;;24.37;60.96;98975.31;4381452;32;34770;-81
2022/08/21 10:04:54;;;;;;;;;;;;;;;24.73;60.46;98975.09;4382801;32;33870;-80
2022/08/21 10:07:27;;;;;;;;;;;;;;;24.64;60.04;98979.34;4381201;32;33129;-80
2022/08/21 10:10:02;;;;;;;;;;;;;;;25.00;58.82;98969.28;4384535;32;33485;-81
2022/08/21 10:12:34;;;;;;;;;;;;;;;24.54;60.37;98966.00;4384150;32;33661;-81
2022/08/21 10:15:08;;;;;;;;;;;;;;;24.62;59.74;98978.59;4390004;32;33970;-79
2022/08/21 10:17:38;;;;;;;;;;;;;;;24.65;60.20;98971.25;4384232;32;33778;-79
2022/08/21 10:20:08;;;;;;;;;;;;;;;24.69;60.37;98963.87;4385291;32;34300;-80
2022/08/21 10:22:41;;;;;;;;;;;;;;;25.16;59.42;98968.81;4387864;32;34789;-80
2022/08/21 10:25:19;;;;;;;;;;;;;;;24.77;59.20;98973.88;4385641;32;33897;-80
2022/08/21 10:27:50;;;;;;;;;;;;;;;25.01;59.69;98971.81;4388782;32;33025;-80
2022/08/21 10:30:22;;;;;;;;;;;;;;;24.88;58.91;98965.84;4384461;32;33606;-81
2022/08/21 10:32:58;;;;;;;;;;;;;;;25.12;59.75;98970.88;4385684;32;34736;-80
2022/08/21 10:35:32;;;;;;;;;;;;;;;25.12;57.96;98969.06;4388771;32;33893;-82
2022/08/21 10:38:14;;;;;;;;;;;;;;;25.11;58.93;98969.22;4385921;32;34080;-80
2022/08/21 10:41:13;;;;;;;;;;;;;;;25.17;58.90;98962.53;4389789;32;34823;-79
2022/08/21 10:43:43;;;;;;;;;;;;;;;25.40;57.99;98965.91;4389779;32;34300;-82
2022/08/21 10:46:21;;;;;;;;;;;;;;;25.41;57.69;98960.44;4386205;32;33357;-79
2022/08/21 10:48:52;;;;;;;;;;;;;;;25.49;57.15;98963.31;4384555;32;33177;-80
2022/08/21 10:51:22;;;;;;;;;;;;;;;25.23;58.18;98952.25;4384886;32;34981;-79
2022/08/21 10:53:58;;;;;;;;;;;;;;;25.36;57.84;98954.69;4389844;32;34771;-81
2022/08/21 10:56:36;;;;;;;;;;;;;;;25.14;58.07;98960.97;4389863;32;34658;-79
2022/08/21 10:59:16;;;;;;;;;;;;;;;24.91;59.51;98955.81;4385065;32;33622;-80
2022/08/21 11:01:48;;;;;;;;;;;;;;;25.18;58.88;98953.62;4384326;32;34386;-79
2022/08/21 11:04:19;;;;;;;;;;;;;;;25.52;57.84;98956.87;4384083;32;34806;-79
2022/08/21 11:06:53;;;;;;;;;;;;;;;25.48;58.71;98945.66;4391091;32;33346;-81
2022/08/21 11:09:22;;;;;;;;;;;;;;;25.63;57.37;98958.59;4389843;32;34414;-79
2022/08/21 11:11:53;;;;;;;;;;;;;;;25.40;57.86;98950.81;4387593;32;34165;-81
2022/08/21 11:14:42;;;;;;;;;;;;;;;25.56;57.22;98947.66;4392144;32;33765;-80
2022/08/21 11:17:19;;;;;;;;;;;;;;;25.65;57.43;98948.69;4386628;32;33743;-80
2022/08/21 11:19:51;;;;;;;;;;;;;;;25.86;57.03;98943.31;4388097;32;32932;-79
2022/08/21 11:22:22;;;;;;;;;;;;;;;25.64;57.12;98942.53;4392105;32;33745;-80
2022/08/21 11:24:52;;;;;;;;;;;;;;;25.60;57.51;98949.06;4391507;32;36717;-81
2022/08/21 11:27:22;;;;;;;;;;;;;;;25.71;56.86;98950.81;4386495;32;34026;-80
2022/08/21 11:29:51;;;;;;;;;;;;;;;25.73;56.83;98954.13;4383874;32;34699;-80
2022/08/21 11:32:31;;;;;;;;;;;;;;;25.47;57.28;98941.34;4391556;32;34611;-82
2022/08/21 11:35:04;;;;;;;;;;;;;;;25.07;58.79;98941.25;4388011;32;35024;-80
2022/08/21 11:37:37;;;;;;;;;;;;;;;25.40;58.20;98944.66;4386331;32;34457;-79
2022/08/21 11:40:07;;;;;;;;;;;;;;;25.34;58.31;98943.38;4387709;32;33562;-79
2022/08/21 11:42:37;;;;;;;;;;;;;;;25.41;57.34;98944.50;4386847;32;34323;-79
2022/08/21 11:45:11;;;;;;;;;;;;;;;25.23;58.52;98946.97;4392077;32;34347;-79
2022/08/21 11:47:46;;;;;;;;;;;;;;;25.62;57.00;98939.16;4386930;32;34861;-79
2022/08/21 11:50:21;;;;;;;;;;;;;;;25.72;56.80;98937.38;4386640;32;33924;-81
2022/08/21 11:53:05;;;;;;;;;;;;;;;25.74;56.41;98937.25;4387645;32;34317;-79
2022/08/21 11:55:39;;;;;;;;;;;;;;;25.89;56.83;98930.59;4386458;32;33727;-79
2022/08/21 11:58:11;;;;;;;;;;;;;;;25.79;56.45;98936.84;4391383;32;33516;-78
2022/08/21 12:00:41;;;;;;;;;;;;;;;25.72;57.05;98934.72;4386325;32;32982;-79
2022/08/21 12:03:14;;;;;;;;;;;;;;;25.61;56.67;98934.81;4387407;32;34624;-80
2022/08/21 12:05:44;;;;;;;;;;;;;;;25.65;56.65;98936.22;4387380;32;34335;-81
2022/08/21 12:08:15;;;;;;;;;;;;;;;25.68;56.54;98935.13;4386161;32;34621;-79
2022/08/21 12:11:01;;;;;;;;;;;;;;;25.33;57.61;98933.72;4391587;32;33137;-78
2022/08/21 12:13:30;;;;;;;;;;;;;;;25.65;56.96;98932.72;4386755;32;33376;-81
2022/08/21 12:16:10;;;;;;;;;;;;;;;25.79;56.56;98940.34;4390863;32;33954;-78
2022/08/21 12:18:47;;;;;;;;;;;;;;;25.11;58.04;98932.88;4384809;32;34495;-79
2022/08/21 12:21:21;;;;;;;;;;;;;;;25.35;58.09;98929.13;4385080;32;34236;-79
2022/08/21 12:24:16;;;;;;;;;;;;;;;25.30;57.84;98931.34;4360830;32;34477;-79
2022/08/21 12:26:50;;;;;;;;;;;;;;;25.17;58.07;98930.69;4376563;32;34940;-81
2022/08/21 12:29:22;;;;;;;;;;;;;;;25.04;58.25;98934.37;4380910;32;33619;-79
2022/08/21 12:31:55;;;;;;;;;;;;;;;24.75;59.22;98928.06;4386182;32;33820;-80
2022/08/21 12:34:26;;;;;;;;;;;;;;;24.77;59.35;98926.13;4386378;32;34061;-79
2022/08/21 12:36:56;;;;;;;;;;;;;;;24.67;59.84;98920.75;4391475;32;34188;-80
2022/08/21 12:39:25;;;;;;;;;;;;;;;24.71;59.43;98914.19;4390631;32;34572;-78
2022/08/21 12:41:55;;;;;;;;;;;;;;;24.80;59.44;98923.19;4386698;32;33606;-80
2022/08/21 12:44:31;;;;;;;;;;;;;;;24.68;60.04;98923.25;4386152;32;33666;-78
2022/08/21 12:47:07;;;;;;;;;;;;;;;24.67;60.05;98918.09;4386137;32;33716;-81
2022/08/21 12:49:47;;;;;;;;;;;;;;;24.75;60.23;98925.41;4391100;32;33638;-78
2022/08/21 12:54:52;;;;;;;;;;;;;;;24.55;59.76;98921.75;4389882;32;34590;-79
2022/08/21 12:57:24;;;;;;;;;;;;;;;24.16;61.33;98919.59;4386244;32;33662;-80
2022/08/21 12:59:53;;;;;;;;;;;;;;;24.37;61.00;98913.50;4386615;32;34450;-79
2022/08/21 13:02:23;;;;;;;;;;;;;;;24.63;60.37;98914.00;4391343;32;34046;-80
2022/08/21 13:04:55;;;;;;;;;;;;;;;24.62;60.64;98913.19;4387698;32;34208;-80
2022/08/21 13:07:26;;;;;;;;;;;;;;;24.36;60.93;98903.87;4387151;32;34064;-81
2022/08/21 13:09:55;;;;;;;;;;;;;;;24.25;61.00;98913.53;4385980;32;34418;-80
2022/08/21 13:12:29;;;;;;;;;;;;;;;24.33;61.07;98907.62;4386973;32;34265;-78
2022/08/21 13:15:01;;;;;;;;;;;;;;;24.19;61.94;98905.25;4391195;32;33898;-79
2022/08/21 13:17:37;;;;;;;;;;;;;;;24.27;61.30;98903.63;4386576;32;33663;-79
2022/08/21 13:20:21;;;;;;;;;;;;;;;24.42;60.68;98890.09;4385670;32;34086;-80
2022/08/21 13:22:50;;;;;;;;;;;;;;;24.33;60.81;98893.50;4387416;32;33526;-80